createdAt,value
2022-08-17T00:01:27.617Z,35.24
2022-08-17T00:06:34.701Z,35.23
2022-08-17T00:11:42.159Z,35.24
2022-08-17T00:16:56.064Z,35.23
2022-08-17T00:22:31.670Z,35.16
2022-08-17T00:27:04.366Z,35.08
2022-08-17T00:33:14.415Z,35.06
2022-08-17T00:37:17.313Z,35.09
2022-08-17T00:42:26.438Z,35.11
2022-08-17T00:47:31.578Z,35.15
2022-08-17T00:52:39.128Z,35.25
2022-08-17T00:57:47.193Z,35.33
2022-08-17T01:02:53.121Z,35.41
2022-08-17T01:07:59.910Z,35.51
2022-08-17T01:13:07.019Z,35.65
2022-08-17T01:18:14.060Z,35.78
2022-08-17T01:23:21.738Z,35.91
2022-08-17T01:28:52.601Z,35.93
2022-08-17T01:33:37.004Z,35.86
2022-08-17T01:38:42.644Z,35.88
2022-08-17T01:43:49.509Z,35.67
2022-08-17T01:48:56.630Z,35.59
2022-08-17T01:54:04.645Z,35.68
2022-08-17T01:59:12.245Z,35.88
2022-08-17T02:04:17.815Z,35.94
2022-08-17T02:09:25.545Z,35.95
2022-08-17T02:14:33.526Z,36.02
2022-08-17T02:19:39.102Z,36.13
2022-08-17T02:25:00.131Z,36.25
2022-08-17T02:29:53.367Z,36.41
2022-08-17T02:35:01.299Z,36.52
2022-08-17T02:40:08.231Z,36.49
2022-08-17T02:45:15.057Z,36.37
2022-08-17T02:50:21.704Z,36.28
2022-08-17T02:55:30.390Z,36.30
2022-08-17T03:00:36.012Z,36.39
2022-08-17T03:05:43.191Z,36.47
2022-08-17T03:10:50.381Z,36.50
2022-08-17T03:15:57.507Z,36.49
2022-08-17T03:21:04.143Z,36.43
2022-08-17T03:26:15.273Z,36.39
2022-08-17T03:31:18.305Z,36.39
2022-08-17T03:36:25.558Z,36.48
2022-08-17T03:41:32.994Z,36.67
2022-08-17T03:46:39.687Z,36.71
2022-08-17T03:51:47.093Z,36.73
2022-08-17T03:56:53.891Z,36.76
2022-08-17T04:02:02.337Z,36.67
2022-08-17T04:07:08.087Z,36.63
2022-08-17T04:12:15.539Z,36.68
2022-08-17T04:17:22.675Z,36.66
2022-08-17T04:22:33.099Z,36.65
2022-08-17T04:27:36.865Z,36.60
2022-08-17T04:33:00.553Z,36.57
2022-08-17T04:43:00.115Z,36.19
2022-08-17T04:48:06.957Z,35.49
2022-08-17T04:53:12.024Z,34.83
2022-08-17T04:58:20.531Z,34.19
2022-08-17T05:03:26.250Z,33.40
2022-08-17T05:08:33.605Z,32.58
2022-08-17T05:13:40.398Z,31.78
2022-08-17T05:18:47.661Z,31.08
2022-08-17T05:23:56.889Z,30.50
2022-08-17T05:29:02.844Z,29.80
2022-08-17T05:34:09.237Z,29.15
2022-08-17T05:39:17.203Z,28.56
2022-08-17T05:44:24.397Z,28.15
2022-08-17T05:49:31.006Z,27.47
2022-08-17T05:54:37.501Z,26.66
2022-08-17T05:59:44.943Z,26.02
2022-08-17T06:04:51.707Z,25.61
2022-08-17T06:09:59.047Z,25.24
2022-08-17T06:15:05.865Z,24.84
2022-08-17T06:20:13.306Z,24.43
2022-08-17T06:25:20.255Z,23.99
2022-08-17T06:30:27.734Z,23.41
2022-08-17T06:35:34.839Z,22.83
2022-08-17T06:40:41.599Z,22.32
2022-08-17T06:45:49.255Z,22.06
2022-08-17T06:50:55.844Z,21.60
2022-08-17T06:56:03.364Z,21.03
2022-08-17T07:01:10.244Z,20.25
2022-08-17T07:06:17.719Z,19.66
2022-08-17T07:11:24.503Z,19.20
2022-08-17T07:16:32.068Z,18.83
2022-08-17T07:21:38.989Z,18.49
2022-08-17T07:26:46.406Z,18.10
2022-08-17T07:31:53.227Z,18.09
2022-08-17T07:37:00.541Z,17.74
2022-08-17T07:42:08.019Z,17.37
2022-08-17T07:47:14.817Z,17.26
2022-08-17T07:52:51.049Z,17.02
2022-08-17T07:57:30.084Z,16.84
2022-08-17T08:02:36.253Z,16.75
2022-08-17T08:07:43.665Z,16.47
2022-08-17T08:12:53.678Z,16.33
2022-08-17T08:17:58.000Z,16.07
2022-08-17T08:23:04.918Z,15.79
2022-08-17T08:28:12.265Z,15.81
2022-08-17T08:33:19.048Z,15.93
2022-08-17T08:38:26.337Z,15.57
2022-08-17T08:43:33.633Z,14.95
2022-08-17T08:48:53.000Z,14.75
2022-08-17T08:53:47.851Z,14.71
2022-08-17T08:58:55.184Z,14.22
2022-08-17T09:04:18.313Z,14.01
2022-08-17T09:09:09.363Z,13.97
2022-08-17T09:14:21.207Z,13.90
2022-08-17T09:19:23.639Z,13.58
2022-08-17T09:24:31.289Z,13.56
2022-08-17T09:29:38.225Z,13.56
2022-08-17T09:34:47.017Z,13.90
2022-08-17T09:39:52.600Z,13.96
2022-08-17T09:44:59.882Z,14.85
2022-08-17T09:50:06.756Z,16.35
2022-08-17T09:55:13.942Z,17.05
2022-08-17T10:00:21.396Z,17.12
2022-08-17T10:05:28.218Z,17.11
2022-08-17T10:10:35.600Z,16.93
2022-08-17T10:15:42.909Z,16.20
2022-08-17T10:20:50.448Z,15.60
2022-08-17T10:25:57.256Z,15.44
2022-08-17T10:31:33.775Z,15.67
2022-08-17T10:36:11.507Z,15.80
2022-08-17T10:41:18.813Z,15.29
2022-08-17T10:46:31.183Z,14.41
2022-08-17T10:51:32.954Z,13.67
2022-08-17T10:56:40.182Z,13.17
2022-08-17T11:01:47.470Z,13.00
2022-08-17T11:06:54.333Z,12.96
2022-08-17T11:12:01.627Z,12.88
2022-08-17T11:17:08.903Z,12.81
2022-08-17T11:22:16.381Z,12.81
2022-08-17T11:27:23.807Z,12.77
2022-08-17T11:32:30.489Z,12.67
2022-08-17T11:37:37.724Z,12.89
2022-08-17T11:42:44.643Z,13.25
2022-08-17T11:48:16.151Z,13.29
2022-08-17T11:52:59.607Z,13.61
2022-08-17T11:58:06.415Z,14.20
2022-08-17T12:03:13.261Z,14.93
2022-08-17T12:08:20.718Z,14.54
2022-08-17T12:13:35.172Z,13.49
2022-08-17T12:18:35.007Z,12.67
2022-08-17T12:23:44.256Z,12.22
2022-08-17T12:28:49.907Z,12.76
2022-08-17T12:33:57.773Z,13.30
2022-08-17T12:39:13.105Z,13.81
2022-08-17T12:44:11.750Z,14.55
2022-08-17T12:49:18.235Z,14.68
2022-08-17T12:54:26.635Z,15.23
2022-08-17T12:59:32.602Z,16.54
2022-08-17T13:04:39.587Z,17.58
2022-08-17T13:09:48.167Z,17.33
2022-08-17T13:14:54.077Z,16.67
2022-08-17T13:20:01.086Z,16.77
2022-08-17T13:25:08.168Z,17.23
2022-08-17T13:30:15.229Z,17.75
2022-08-17T13:35:29.766Z,18.27
2022-08-17T13:40:29.633Z,18.66
2022-08-17T13:45:39.334Z,18.51
2022-08-17T13:50:44.172Z,18.38
2022-08-17T13:55:51.451Z,18.56
2022-08-17T14:00:58.105Z,18.57
2022-08-17T14:06:05.621Z,18.81
2022-08-17T14:11:12.442Z,18.69
2022-08-17T14:16:19.606Z,18.61
2022-08-17T14:21:26.872Z,18.47
2022-08-17T14:26:34.202Z,18.77
2022-08-17T14:31:41.608Z,19.05
2022-08-17T14:36:48.819Z,19.11
2022-08-17T14:41:55.912Z,19.11
2022-08-17T14:47:02.526Z,19.00
2022-08-17T14:52:09.779Z,18.93
2022-08-17T14:57:33.764Z,19.54
2022-08-17T15:02:27.555Z,20.00
2022-08-17T15:07:31.710Z,20.09
2022-08-17T15:12:40.039Z,20.06
2022-08-17T15:17:46.847Z,20.06
2022-08-17T15:22:53.016Z,20.14
2022-08-17T15:28:00.253Z,20.29
2022-08-17T15:33:06.962Z,20.36
2022-08-17T15:38:14.470Z,20.51
2022-08-17T15:43:27.067Z,20.45
2022-08-17T15:48:28.515Z,20.50
2022-08-17T15:53:35.814Z,20.56
2022-08-17T15:58:43.120Z,20.62
2022-08-17T16:04:05.011Z,20.77
2022-08-17T16:08:57.379Z,21.07
2022-08-17T16:14:04.395Z,21.23
2022-08-17T16:19:11.634Z,21.52
2022-08-17T16:24:18.625Z,21.78
2022-08-17T16:29:26.007Z,21.86
2022-08-17T16:34:33.061Z,21.92
2022-08-17T16:39:39.850Z,22.01
2022-08-17T16:44:47.171Z,21.99
2022-08-17T16:49:54.470Z,22.04
2022-08-17T16:55:01.945Z,22.04
2022-08-17T17:00:09.004Z,21.98
2022-08-17T17:05:15.961Z,21.99
2022-08-17T17:10:22.869Z,22.09
2022-08-17T17:15:30.317Z,22.29
2022-08-17T17:20:37.230Z,22.49
2022-08-17T17:25:44.421Z,22.64
2022-08-17T17:30:51.214Z,22.77
2022-08-17T17:35:58.494Z,22.93
2022-08-17T17:41:05.787Z,23.07
2022-08-17T17:46:27.140Z,23.25
2022-08-17T17:51:55.002Z,23.43
2022-08-17T17:56:44.072Z,23.62
2022-08-17T18:01:34.625Z,23.78
2022-08-17T18:06:41.237Z,23.93
2022-08-17T18:11:51.378Z,24.06
2022-08-17T18:16:56.459Z,24.20
2022-08-17T18:22:02.875Z,24.32
2022-08-17T18:27:10.325Z,24.45
2022-08-17T18:32:17.261Z,24.57
2022-08-17T18:37:24.029Z,24.70
2022-08-17T18:42:31.326Z,24.82
2022-08-17T18:47:38.737Z,24.94
2022-08-17T18:52:45.826Z,25.06
2022-08-17T18:57:52.829Z,25.19
2022-08-17T19:03:00.138Z,25.33
2022-08-17T19:08:07.309Z,25.48
2022-08-17T19:13:14.127Z,25.64
2022-08-17T19:18:21.467Z,25.78
2022-08-17T19:23:28.355Z,25.92
2022-08-17T19:28:36.111Z,26.05
2022-08-17T19:33:42.951Z,26.17
2022-08-17T19:38:49.719Z,26.27
2022-08-17T19:43:57.019Z,26.36
2022-08-17T19:49:04.504Z,26.44
2022-08-17T19:54:11.325Z,26.55
2022-08-17T19:59:18.602Z,26.67
2022-08-17T20:04:25.448Z,26.77
2022-08-17T20:09:33.721Z,26.85
2022-08-17T20:14:40.143Z,26.96
2022-08-17T20:19:48.015Z,27.06
2022-08-17T20:24:53.874Z,27.13
2022-08-17T20:30:01.205Z,27.20
2022-08-17T20:35:08.817Z,27.32
2022-08-17T20:40:15.777Z,27.47
2022-08-17T20:45:22.483Z,27.60
2022-08-17T20:50:29.888Z,27.71
2022-08-17T20:55:51.819Z,27.77
2022-08-17T21:00:44.105Z,27.90
2022-08-17T21:05:52.333Z,28.03
2022-08-17T21:10:58.210Z,28.14
2022-08-17T21:16:05.534Z,28.22
2022-08-17T21:21:15.461Z,28.32
2022-08-17T21:26:19.569Z,28.49
2022-08-17T21:31:26.861Z,28.59
2022-08-17T21:36:33.670Z,28.69
2022-08-17T21:41:40.936Z,28.85
2022-08-17T21:46:50.320Z,28.95
2022-08-17T21:51:56.280Z,29.04
2022-08-17T21:57:03.976Z,29.15
2022-08-17T22:02:10.979Z,29.31
2022-08-17T22:07:17.312Z,29.38
2022-08-17T22:12:24.658Z,29.49
2022-08-17T22:17:31.571Z,29.60
2022-08-17T22:22:38.470Z,29.70
2022-08-17T22:27:46.305Z,29.81
2022-08-17T22:32:52.462Z,29.88
2022-08-17T22:38:01.687Z,30.01
2022-08-17T22:43:06.646Z,30.22
2022-08-17T22:48:13.624Z,30.28
2022-08-17T22:53:22.930Z,30.41
2022-08-17T22:58:28.152Z,30.57
2022-08-17T23:03:35.215Z,30.63
2022-08-17T23:08:42.971Z,30.77
2022-08-17T23:13:49.792Z,30.79
2022-08-17T23:18:56.349Z,30.80
2022-08-17T23:24:03.724Z,30.82
2022-08-17T23:29:10.576Z,30.93
2022-08-17T23:34:18.149Z,31.15
2022-08-17T23:39:27.595Z,31.16
2022-08-17T23:44:32.326Z,31.25
2022-08-17T23:49:40.842Z,31.37
2022-08-17T23:54:47.800Z,31.48
2022-08-17T23:59:53.340Z,31.59
